Hovedside
METAR-TAF:

METAR-TAF

Lufthavner :

Stauning lufthavn

Ringkøbing-Skjern, Danmark

breddegrad: 56-00N, lengdegrad: 008-21E, høyde over havet: 5 m

Gjeldene værobservasjon

Denne rapporten ble laget for 51 minutter siden, klokken 13:50 UTC
Vind 14 kt fra Nordvest, skiftende mellom Vest og Nord-nordvest
Temperatur 20°C
Luftfuktighet 78%
Trykk 1018 hPa
Sikt 10 km eller mer
Få skyer i en høyde av 1500 ft
Spredte skyer i en høyde av 2000 ft

METAR: EKVJ 181350Z 31014KT 280V340 9999 FEW015 SCT020 20/16 Q1018

Tid: 16:41 (14:41 UTC)

Varsel

Denne rapporten ble laget for 5 timer og 47 minutter siden, klokken 08:54 UTC
Varsel gyldig fra 18. klokken 09 UTC til 18. klokken 15 UTC
Vind 8 kt fra Vest-nordvest
Sikt 10 km eller mer
Brutte skyer i en høyde av 1400 ft
Blir
fra 18. klokken 09 UTC til 18. klokken 10 UTC
Få skyer i en høyde av 2000 ft

TAF: EKVJ 180854Z 1809/1815 30008KT 9999 BKN014 BECMG 1809/1810 FEW020

Værobservasjoner og værvarsel for over 4000 flyplasser (METAR- og TAF-rapporter).

Tilgjengelige stasjoner er representert av de røde og gule prikkene på kartet.

Hold musepekeren over prikken for å se navnet på stasjonen.

Klikk så for å se værobservasjoner og -varsler.

For å forandre kartet kan du klikke på den grønne knappen med svart kryss for å zoome inn, på den grønne knappen med strek for å zoome ut, eller på de grønne pilene for å se tilstøtende kart.


METAR-TAF: